createdAt,value
2022-10-04T08:52:14.253Z,0.80
2022-10-04T08:55:06.882Z,0.70
2022-10-04T08:58:02.522Z,0.85
2022-10-04T09:00:48.985Z,0.50
2022-10-04T09:03:46.920Z,0.80
2022-10-04T09:06:27.954Z,1.00
2022-10-04T09:09:35.736Z,0.70
2022-10-04T09:12:44.330Z,0.80
2022-10-04T09:15:26.979Z,0.88
2022-10-04T09:18:02.515Z,1.00
2022-10-04T09:20:49.306Z,0.80
2022-10-04T09:23:43.731Z,1.05
2022-10-04T09:26:22.124Z,0.90
2022-10-04T09:29:15.445Z,0.80
2022-10-04T09:32:08.893Z,1.00
2022-10-04T09:34:58.444Z,0.90
2022-10-04T09:37:42.670Z,0.70
2022-10-04T09:40:48.478Z,0.85
2022-10-04T09:43:37.541Z,1.00
2022-10-04T09:46:20.998Z,0.77
2022-10-04T09:48:58.726Z,0.75
2022-10-04T09:51:54.541Z,0.80
2022-10-04T09:55:04.366Z,0.82
2022-10-04T09:57:46.728Z,0.90
2022-10-04T10:00:23.970Z,0.88
2022-10-04T10:03:26.245Z,0.90
2022-10-04T10:06:21.508Z,0.80
2022-10-04T10:09:03.760Z,0.70
2022-10-04T10:11:57.840Z,0.80
2022-10-04T10:14:51.308Z,0.90
2022-10-04T10:17:28.445Z,0.73
2022-10-04T10:20:20.473Z,0.90
2022-10-04T10:23:06.993Z,0.98
2022-10-04T10:25:47.805Z,0.82
2022-10-04T10:28:32.878Z,1.10
2022-10-04T10:31:18.311Z,1.08
2022-10-04T10:34:21.047Z,1.00
2022-10-04T10:37:08.978Z,1.30
2022-10-04T10:40:03.925Z,0.90
2022-10-04T10:43:15.386Z,1.30
2022-10-04T10:45:58.887Z,1.10
2022-10-04T10:48:43.837Z,1.63
2022-10-04T10:51:20.366Z,1.15
2022-10-04T10:54:19.002Z,1.00
2022-10-04T10:57:07.740Z,1.40
2022-10-04T11:00:09.470Z,1.20
2022-10-04T11:03:11.794Z,1.08
2022-10-04T11:06:08.395Z,1.00
2022-10-04T11:09:17.211Z,1.10
2022-10-04T11:12:05.688Z,1.00
2022-10-04T11:15:22.104Z,1.00
2022-10-04T11:18:16.053Z,1.00
2022-10-04T11:21:07.559Z,1.30
2022-10-04T11:24:08.382Z,1.20
2022-10-04T11:27:00.737Z,1.00
2022-10-04T11:32:37.647Z,1.00
2022-10-04T11:35:41.570Z,0.90
2022-10-04T11:38:16.417Z,1.10
2022-10-04T11:41:13.829Z,1.10
2022-10-04T11:44:17.025Z,1.20
2022-10-04T11:46:53.942Z,1.20
2022-10-04T11:49:43.742Z,1.20
2022-10-04T11:52:54.392Z,1.13
2022-10-04T11:58:18.497Z,1.55
2022-10-04T12:01:15.083Z,1.25
2022-10-04T12:04:04.970Z,1.30
2022-10-04T12:06:50.169Z,1.10
2022-10-04T12:09:29.389Z,1.30
2022-10-04T12:12:43.809Z,1.30
2022-10-04T12:15:40.584Z,1.30
2022-10-04T12:18:45.012Z,1.13
2022-10-04T12:21:34.720Z,1.30
2022-10-04T12:24:15.801Z,1.20
2022-10-04T12:27:07.950Z,1.25
2022-10-04T12:30:13.979Z,1.10
2022-10-04T12:32:57.906Z,1.20
2022-10-04T12:35:35.307Z,1.35
2022-10-04T12:38:42.300Z,1.20
2022-10-04T12:41:25.707Z,1.40
2022-10-04T12:44:04.968Z,1.15
2022-10-04T12:46:40.774Z,1.77
2022-10-04T12:49:18.238Z,1.30
2022-10-04T12:51:58.825Z,1.40
2022-10-04T12:54:35.394Z,1.17
2022-10-04T12:57:26.914Z,1.10
2022-10-04T13:00:04.565Z,1.40
2022-10-04T13:02:58.996Z,1.40
2022-10-04T13:05:35.633Z,1.20
2022-10-04T13:08:18.182Z,1.20
2022-10-04T13:11:21.762Z,1.20
2022-10-04T13:14:14.817Z,1.30
2022-10-04T13:19:52.978Z,1.30
2022-10-04T13:22:55.928Z,1.30
2022-10-04T13:25:46.361Z,1.20
2022-10-04T13:28:24.524Z,1.30
2022-10-04T13:31:04.421Z,1.30
2022-10-04T13:33:41.928Z,1.40
2022-10-04T13:36:16.779Z,1.10
2022-10-04T13:39:11.235Z,1.20
2022-10-04T13:41:57.268Z,1.35
2022-10-04T13:47:29.347Z,1.13
2022-10-04T13:50:17.872Z,1.08
2022-10-04T13:53:21.239Z,1.00
2022-10-04T13:56:14.420Z,1.08
2022-10-04T13:58:48.654Z,1.00
2022-10-04T14:01:48.935Z,1.30
2022-10-04T14:04:52.664Z,0.90
2022-10-04T14:07:37.174Z,1.02
2022-10-04T14:10:38.340Z,0.85
2022-10-04T14:13:51.700Z,1.17
2022-10-04T14:16:39.050Z,1.00
2022-10-04T14:19:31.875Z,0.95
2022-10-04T14:22:26.434Z,0.88
2022-10-04T14:25:56.604Z,0.93
2022-10-04T14:28:46.473Z,1.00
2022-10-04T14:31:37.683Z,1.00
2022-10-04T14:34:31.072Z,1.10
2022-10-04T14:37:28.237Z,0.93
2022-10-04T14:40:20.347Z,0.93
2022-10-04T14:43:15.246Z,0.85
2022-10-04T14:46:02.620Z,1.02
2022-10-04T14:48:58.484Z,1.00
2022-10-04T14:51:39.314Z,0.90
2022-10-04T14:54:11.071Z,1.00
2022-10-04T14:56:53.330Z,1.45
2022-10-04T14:59:53.637Z,1.00
2022-10-04T15:02:46.039Z,0.80
2022-10-04T15:08:15.769Z,0.88
2022-10-04T15:10:50.856Z,0.90
2022-10-04T15:13:26.238Z,0.70
2022-10-04T15:16:08.904Z,0.90
2022-10-04T15:18:55.774Z,0.75
2022-10-04T15:21:43.624Z,0.90
2022-10-04T15:24:26.630Z,0.80
2022-10-04T15:27:18.201Z,0.90
2022-10-04T15:29:58.845Z,0.70
2022-10-04T15:32:40.945Z,0.70
2022-10-04T15:35:23.864Z,0.65
2022-10-04T15:37:59.275Z,0.60
2022-10-04T15:40:49.668Z,0.60
2022-10-04T15:43:24.006Z,0.65
2022-10-04T15:46:24.823Z,0.55
2022-10-04T15:49:31.438Z,0.60
2022-10-04T15:52:10.498Z,0.35
2022-10-04T15:55:03.036Z,0.70
2022-10-04T15:57:43.298Z,0.50
2022-10-04T16:00:15.576Z,0.50
2022-10-04T16:03:09.172Z,0.45
2022-10-04T16:05:45.036Z,0.52
2022-10-04T16:08:29.646Z,0.50
2022-10-04T16:11:21.717Z,0.57
2022-10-04T16:14:07.504Z,0.60
2022-10-04T16:17:09.699Z,0.43
2022-10-04T16:20:02.149Z,0.80
2022-10-04T16:22:33.690Z,0.70
2022-10-04T16:25:38.271Z,0.70
2022-10-04T16:30:44.957Z,0.82
2022-10-04T16:33:25.422Z,0.88
2022-10-04T16:36:07.224Z,0.70
2022-10-04T16:39:05.522Z,0.93
2022-10-04T16:41:41.353Z,0.90
2022-10-04T16:44:23.680Z,0.90
2022-10-04T16:46:54.733Z,1.00
2022-10-04T16:49:29.506Z,1.00
2022-10-04T16:52:16.725Z,0.95
2022-10-04T16:55:15.215Z,0.63
2022-10-04T16:57:43.887Z,1.00
2022-10-04T17:00:35.227Z,1.00
2022-10-04T17:03:18.674Z,0.80
2022-10-04T17:06:02.943Z,0.90
2022-10-04T17:08:48.665Z,0.80
2022-10-04T17:12:00.391Z,0.82
2022-10-04T17:15:09.112Z,0.70
2022-10-04T17:17:46.669Z,0.68
2022-10-04T17:20:27.068Z,0.63
2022-10-04T17:23:06.033Z,0.82
2022-10-04T17:25:42.889Z,0.88
2022-10-04T17:28:27.318Z,0.90
2022-10-04T17:31:03.579Z,0.80
2022-10-04T17:33:44.568Z,0.70
2022-10-04T17:36:30.071Z,0.90
2022-10-04T17:39:08.334Z,0.80
2022-10-04T17:41:51.480Z,0.70
2022-10-04T17:44:34.224Z,0.80
2022-10-04T17:47:14.059Z,0.73
2022-10-04T17:50:10.824Z,0.75
2022-10-04T17:53:02.002Z,0.80
2022-10-04T17:55:43.986Z,0.93
2022-10-04T17:58:17.763Z,1.20
2022-10-04T18:01:08.573Z,0.82
2022-10-04T18:03:41.531Z,1.13
2022-10-04T18:06:21.114Z,0.80
2022-10-04T18:08:54.908Z,1.00
2022-10-04T18:11:31.316Z,0.80
2022-10-04T18:14:05.465Z,0.90
2022-10-04T18:19:38.768Z,0.82
2022-10-04T18:22:14.927Z,0.70
2022-10-04T18:24:44.674Z,0.65
2022-10-04T18:27:21.051Z,0.70
2022-10-04T18:30:04.193Z,0.88
2022-10-04T18:32:35.675Z,0.70
2022-10-04T18:35:21.755Z,0.60
2022-10-04T18:37:50.801Z,0.80
2022-10-04T18:40:21.446Z,0.63
2022-10-04T18:42:55.589Z,0.77
2022-10-04T18:45:26.950Z,0.90
2022-10-04T18:47:59.915Z,0.60
2022-10-04T18:50:44.276Z,0.60
2022-10-04T18:53:43.646Z,0.50
2022-10-04T18:56:13.057Z,0.70
2022-10-04T18:59:13.568Z,0.60
2022-10-04T19:02:04.784Z,0.52
2022-10-04T19:04:45.424Z,0.50
2022-10-04T19:07:16.813Z,0.65
2022-10-04T19:10:20.060Z,0.60
2022-10-04T19:12:57.217Z,0.60
2022-10-04T19:15:45.944Z,0.57
2022-10-04T19:18:29.020Z,0.40
2022-10-04T19:21:09.696Z,0.63
2022-10-04T19:23:50.933Z,0.50
2022-10-04T19:26:32.096Z,0.60
2022-10-04T19:29:13.690Z,0.45
2022-10-04T19:31:53.850Z,0.22
2022-10-04T19:34:31.450Z,0.60
2022-10-04T19:37:08.976Z,0.60
2022-10-04T19:39:47.324Z,0.60
2022-10-04T19:42:18.221Z,0.57
2022-10-04T19:44:59.727Z,0.43
2022-10-04T19:47:39.834Z,0.40
2022-10-04T19:52:53.297Z,0.40
2022-10-04T19:55:32.815Z,0.40
2022-10-04T19:58:14.197Z,0.30
2022-10-04T20:00:42.685Z,0.40
2022-10-04T20:03:12.743Z,0.40
2022-10-04T20:05:46.342Z,0.60
2022-10-04T20:08:17.924Z,0.50
2022-10-04T20:10:46.422Z,0.45
2022-10-04T20:13:23.541Z,0.40
2022-10-04T20:15:54.359Z,0.30
2022-10-04T20:18:58.435Z,0.70
2022-10-04T20:21:31.976Z,0.45
2022-10-04T20:24:02.341Z,0.50
2022-10-04T20:26:55.992Z,0.47
2022-10-04T20:30:06.402Z,0.40
2022-10-04T20:32:54.567Z,0.55
2022-10-04T20:36:01.810Z,0.70
2022-10-04T20:38:55.123Z,0.63
2022-10-04T20:42:22.270Z,0.68
2022-10-04T20:44:55.430Z,0.70
2022-10-04T20:47:46.146Z,0.70
2022-10-04T20:50:21.856Z,0.75
2022-10-04T20:52:53.671Z,0.60
2022-10-04T20:55:27.323Z,0.73
2022-10-04T20:57:58.746Z,0.80
2022-10-04T21:00:31.853Z,0.70
2022-10-04T21:03:24.766Z,0.73
2022-10-04T21:06:08.228Z,0.80
2022-10-04T21:08:37.577Z,0.90
2022-10-04T21:11:20.019Z,0.80
2022-10-04T21:13:59.934Z,0.73
2022-10-04T21:16:52.264Z,0.95
2022-10-04T21:19:45.495Z,0.80
2022-10-04T21:22:37.459Z,0.80
2022-10-04T21:25:22.644Z,0.80
2022-10-04T21:27:51.042Z,0.90
2022-10-04T21:30:20.561Z,0.90
2022-10-04T21:32:50.304Z,0.90
2022-10-04T21:35:18.772Z,0.88
2022-10-04T21:37:47.124Z,0.80
2022-10-04T21:40:15.648Z,0.93
2022-10-04T21:42:44.065Z,0.88
2022-10-04T21:45:12.412Z,1.05
2022-10-04T21:47:40.801Z,0.93
2022-10-04T21:50:10.898Z,0.90
2022-10-04T21:52:39.323Z,0.90
2022-10-04T21:55:10.564Z,0.90
2022-10-04T21:57:39.014Z,1.10
2022-10-04T22:00:08.812Z,1.00
2022-10-04T22:02:40.769Z,1.00
2022-10-04T22:05:10.718Z,0.93
2022-10-04T22:07:39.142Z,1.10
2022-10-04T22:10:07.998Z,1.10
2022-10-04T22:12:36.423Z,0.90
2022-10-04T22:15:05.380Z,0.90
2022-10-04T22:17:33.794Z,0.90
2022-10-04T22:20:02.320Z,1.10
2022-10-04T22:22:35.305Z,1.10
2022-10-04T22:25:14.757Z,1.10
2022-10-04T22:27:43.477Z,1.10
2022-10-04T22:30:22.407Z,1.00
2022-10-04T22:32:51.483Z,1.10
2022-10-04T22:35:21.329Z,1.10
2022-10-04T22:37:51.478Z,1.10
2022-10-04T22:40:22.428Z,1.00
2022-10-04T22:42:53.231Z,1.27
2022-10-04T22:45:24.825Z,1.20
2022-10-04T22:47:54.410Z,1.10
2022-10-04T22:50:29.579Z,1.10
2022-10-04T22:53:03.962Z,1.00
2022-10-04T22:55:32.529Z,1.20
2022-10-04T22:58:02.476Z,1.20
2022-10-04T23:00:30.877Z,1.00
2022-10-04T23:02:59.466Z,1.23
2022-10-04T23:05:28.839Z,1.20
2022-10-04T23:07:57.270Z,1.10
2022-10-04T23:10:26.990Z,1.20
2022-10-04T23:12:55.459Z,1.33
2022-10-04T23:15:24.039Z,1.20
2022-10-04T23:17:55.680Z,1.40
2022-10-04T23:20:24.541Z,1.10
2022-10-04T23:22:55.298Z,1.30
2022-10-04T23:25:28.412Z,1.27
2022-10-04T23:28:01.874Z,1.13
2022-10-04T23:30:30.482Z,1.08
2022-10-04T23:33:01.937Z,1.10
2022-10-04T23:35:32.633Z,1.20
2022-10-04T23:38:06.860Z,1.35
2022-10-04T23:40:36.674Z,1.27
2022-10-04T23:43:06.665Z,1.10
2022-10-04T23:45:41.581Z,1.20
2022-10-04T23:48:12.404Z,1.10
2022-10-04T23:50:41.743Z,1.17
2022-10-04T23:53:17.560Z,1.30
2022-10-04T23:55:47.605Z,1.30
2022-10-04T23:58:18.654Z,1.30
